PWSweather.com
Personal Weather Stations
Station Observations
HAJERN
Hajeren, HvittingfossNO 3647

HajerenHvittingfossNO 3647

Lat: 59.54314324, Lon: 9.95778703

Elevation: 1320

Station Type: Fine Ofset WS 1080

Latest ConditionsUpdated 8:00:11 PM GMT+01:01 Thursday, Oct 18, 2018
Currently Today's Max Today's Min Today's Average
Temperature 43.9°F6.6°C 55.9°F13.3°C 35.2°F1.8°C 45.1°F7.3°C
Dew Point 36.1°F2.3°C 46.9°F8.3°C 35.0°F1.7°C 39.0°F3.9°C
Winds 6.5 mph WNW10.5 kmh WNW 9.7 mph -15.6 kmh - - 4.5 mph 7.2 kmh
Wind Gusts 9.8 mph15.8 kmh 15.2 mph24.5 kmh - -
Humidity 74% 100% 51% 82%
Pressure 30.64 in1037.6 mb 30.64 in1037.6 mb 30.46 in1031.5 mb -
Hour Temp Dew Point Humidity Winds Wind Gusts Pressure Precip Precip Rate Daily Precip Total
08:00 PM 43.9°F6.6°C 36.1°F2.3°C 74% 6.5 mph WNW10.5 kmh WNW 9.8 mph15.8 kmh 30.64 in1037.6 mb 0.00 in0.0 mm 0.00 in0.0 mm 0.00 in0.0 mm
07:30 PM 41.5°F5.3°C 37.1°F2.8°C 84% 7.6 mph W12.2 kmh W 11.4 mph18.3 kmh 30.63 in1037.3 mb 0.00 in0.0 mm 0.00 in0.0 mm 0.00 in0.0 mm
07:00 PM 40.1°F4.5°C 37.4°F3.0°C 90% 1.6 mph N2.6 kmh N 3.1 mph5.0 kmh 30.64 in1037.6 mb 0.00 in0.0 mm 0.00 in0.0 mm 0.00 in0.0 mm
06:30 PM 40.5°F4.7°C 36.6°F2.6°C 86% 1.8 mph SE2.9 kmh SE 3.1 mph5.0 kmh 30.63 in1037.3 mb 0.00 in0.0 mm 0.00 in0.0 mm 0.00 in0.0 mm
06:00 PM 42.1°F5.6°C 36.4°F2.4°C 80% 3.0 mph ENE4.8 kmh ENE 3.8 mph6.1 kmh 30.62 in1036.9 mb 0.00 in0.0 mm 0.00 in0.0 mm 0.00 in0.0 mm
05:30 PM 44.8°F7.1°C 35.6°F2.0°C 70% 2.2 mph SE3.5 kmh SE 3.8 mph6.1 kmh 30.61 in1036.6 mb 0.00 in0.0 mm 0.00 in0.0 mm 0.00 in0.0 mm
05:00 PM 46.6°F8.1°C 35.8°F2.1°C 66% 5.8 mph WSW9.3 kmh WSW 7.6 mph12.2 kmh 30.61 in1036.6 mb 0.00 in0.0 mm 0.00 in0.0 mm 0.00 in0.0 mm
04:30 PM 51.1°F10.6°C 35.9°F2.2°C 56% 5.8 mph W9.3 kmh W 8.3 mph13.4 kmh 30.60 in1036.2 mb 0.00 in0.0 mm 0.00 in0.0 mm 0.00 in0.0 mm
04:00 PM 52.7°F11.5°C 36.5°F2.5°C 54% 6.5 mph W10.5 kmh W 8.3 mph13.4 kmh 30.59 in1035.9 mb 0.00 in0.0 mm 0.00 in0.0 mm 0.00 in0.0 mm
03:30 PM 53.2°F11.8°C 36.6°F2.6°C 53% 8.1 mph W13.0 kmh W 9.8 mph15.8 kmh 30.59 in1035.9 mb 0.00 in0.0 mm 0.00 in0.0 mm 0.00 in0.0 mm
03:00 PM 55.6°F13.1°C 38.2°F3.4°C 52% 6.9 mph W11.1 kmh W 11.4 mph18.3 kmh 30.59 in1035.9 mb 0.00 in0.0 mm 0.00 in0.0 mm 0.00 in0.0 mm
02:30 PM 55.9°F13.3°C 38.1°F3.4°C 51% 7.6 mph W12.2 kmh W 9.2 mph14.8 kmh 30.59 in1035.9 mb 0.00 in0.0 mm 0.00 in0.0 mm 0.00 in0.0 mm
02:00 PM 55.0°F12.8°C 38.2°F3.4°C 53% 5.2 mph NW8.4 kmh NW 8.3 mph13.4 kmh 30.59 in1035.9 mb 0.00 in0.0 mm 0.00 in0.0 mm 0.00 in0.0 mm
01:30 PM 55.2°F12.9°C 38.9°F3.8°C 54% 3.5 mph W5.6 kmh W 7.6 mph12.2 kmh 30.59 in1035.9 mb 0.00 in0.0 mm 0.00 in0.0 mm 0.00 in0.0 mm
01:00 PM 53.4°F11.9°C 37.2°F2.9°C 54% 7.9 mph W12.7 kmh W 13.0 mph20.9 kmh 30.58 in1035.6 mb 0.00 in0.0 mm 0.00 in0.0 mm 0.00 in0.0 mm
12:30 PM 52.2°F11.2°C 38.7°F3.7°C 60% 7.5 mph WNW12.1 kmh WNW 10.7 mph17.2 kmh 30.58 in1035.6 mb 0.00 in0.0 mm 0.00 in0.0 mm 0.00 in0.0 mm
12:00 PM 50.4°F10.2°C 38.3°F3.5°C 63% 9.7 mph NW15.6 kmh NW 13.6 mph21.9 kmh 30.59 in1035.9 mb 0.00 in0.0 mm 0.00 in0.0 mm 0.00 in0.0 mm
11:30 AM 49.8°F9.9°C 38.9°F3.8°C 66% 9.4 mph W15.1 kmh W 15.2 mph24.5 kmh 30.59 in1035.9 mb 0.00 in0.0 mm 0.00 in0.0 mm 0.00 in0.0 mm
11:00 AM 50.0°F10.0°C 40.6°F4.8°C 70% 8.5 mph W13.7 kmh W 12.1 mph19.5 kmh 30.58 in1035.6 mb 0.00 in0.0 mm 0.00 in0.0 mm 0.00 in0.0 mm
10:30 AM 49.8°F9.9°C 40.4°F4.7°C 70% 5.1 mph W8.2 kmh W 6.9 mph11.1 kmh 30.58 in1035.6 mb 0.00 in0.0 mm 0.00 in0.0 mm 0.00 in0.0 mm
10:00 AM 47.8°F8.8°C 40.6°F4.8°C 76% 3.2 mph WNW5.1 kmh WNW 6.0 mph9.7 kmh 30.58 in1035.6 mb 0.00 in0.0 mm 0.00 in0.0 mm 0.00 in0.0 mm
09:30 AM 41.9°F5.5°C 40.3°F4.6°C 94% 4.7 mph W7.6 kmh W 6.9 mph11.1 kmh 30.57 in1035.2 mb 0.00 in0.0 mm 0.00 in0.0 mm 0.00 in0.0 mm
09:00 AM 38.1°F3.4°C 37.9°F3.3°C 99% 1.7 mph SW2.7 kmh SW 4.5 mph7.2 kmh 30.57 in1035.2 mb 0.00 in0.0 mm 0.00 in0.0 mm 0.00 in0.0 mm
08:30 AM 36.9°F2.7°C 36.6°F2.6°C 99% 2.0 mph E3.2 kmh E 3.8 mph6.1 kmh 30.57 in1035.2 mb 0.00 in0.0 mm 0.00 in0.0 mm 0.00 in0.0 mm
08:00 AM 35.4°F1.9°C 35.2°F1.8°C 99% 4.6 mph SW7.4 kmh SW 6.0 mph9.7 kmh 30.55 in1034.5 mb 0.00 in0.0 mm 0.00 in0.0 mm 0.00 in0.0 mm
07:30 AM 35.2°F1.8°C 35.0°F1.7°C 99% 2.1 mph E3.4 kmh E 3.1 mph5.0 kmh 30.53 in1033.9 mb 0.00 in0.0 mm 0.00 in0.0 mm 0.00 in0.0 mm
07:00 AM 36.1°F2.3°C 35.9°F2.2°C 99% Calm Calm -- 30.52 in1033.5 mb 0.00 in0.0 mm 0.00 in0.0 mm 0.00 in0.0 mm
06:30 AM 36.9°F2.7°C 36.6°F2.6°C 99% 0.1 mph E0.2 kmh E 0.7 mph1.1 kmh 30.51 in1033.2 mb 0.00 in0.0 mm 0.00 in0.0 mm 0.00 in0.0 mm
06:00 AM 38.5°F3.6°C 38.2°F3.4°C 99% 1.4 mph W2.3 kmh W 4.5 mph7.2 kmh 30.50 in1032.8 mb 0.00 in0.0 mm 0.00 in0.0 mm 0.00 in0.0 mm
05:30 AM 39.7°F4.3°C 39.7°F4.3°C 100% 4.6 mph WSW7.4 kmh WSW 6.9 mph11.1 kmh 30.50 in1032.8 mb 0.00 in0.0 mm 0.00 in0.0 mm 0.00 in0.0 mm
05:00 AM 40.6°F4.8°C 39.6°F4.2°C 96% 7.0 mph W11.3 kmh W 9.8 mph15.8 kmh 30.50 in1032.8 mb 0.00 in0.0 mm 0.00 in0.0 mm 0.00 in0.0 mm
04:30 AM 39.2°F4.0°C 38.9°F3.8°C 99% 6.8 mph W10.9 kmh W 9.8 mph15.8 kmh 30.49 in1032.5 mb 0.00 in0.0 mm 0.00 in0.0 mm 0.00 in0.0 mm
04:00 AM 40.1°F4.5°C 39.8°F4.3°C 99% 3.0 mph W4.8 kmh W 6.0 mph9.7 kmh 30.49 in1032.5 mb 0.00 in0.0 mm 0.00 in0.0 mm 0.00 in0.0 mm
03:30 AM 40.8°F4.9°C 40.6°F4.8°C 99% 2.1 mph WSW3.4 kmh WSW 6.9 mph11.1 kmh 30.49 in1032.5 mb 0.00 in0.0 mm 0.00 in0.0 mm 0.00 in0.0 mm
03:00 AM 42.4°F5.8°C 42.2°F5.7°C 99% 2.7 mph WNW4.3 kmh WNW 4.5 mph7.2 kmh 30.48 in1032.2 mb 0.00 in0.0 mm 0.00 in0.0 mm 0.00 in0.0 mm
02:30 AM 43.9°F6.6°C 42.8°F6.0°C 96% 3.5 mph W5.6 kmh W 5.4 mph8.7 kmh 30.49 in1032.5 mb 0.00 in0.0 mm 0.00 in0.0 mm 0.00 in0.0 mm
02:00 AM 45.3°F7.4°C 43.4°F6.3°C 93% 5.6 mph W9.0 kmh W 9.8 mph15.8 kmh 30.48 in1032.2 mb 0.00 in0.0 mm 0.00 in0.0 mm 0.00 in0.0 mm
01:30 AM 45.7°F7.6°C 44.6°F7.0°C 96% 2.2 mph NE3.5 kmh NE 3.1 mph5.0 kmh 30.47 in1031.8 mb 0.00 in0.0 mm 0.00 in0.0 mm 0.00 in0.0 mm
01:00 AM 46.0°F7.8°C 45.2°F7.3°C 97% 3.2 mph SSW5.1 kmh SSW 6.0 mph9.7 kmh 30.47 in1031.8 mb 0.00 in0.0 mm 0.00 in0.0 mm 0.00 in0.0 mm
12:30 AM 46.9°F8.3°C 46.9°F8.3°C 100% 2.4 mph N3.9 kmh N 6.0 mph9.7 kmh 30.46 in1031.5 mb 0.00 in0.0 mm 0.00 in0.0 mm 0.00 in0.0 mm
12:00 AM 47.1°F8.4°C 46.9°F8.3°C 99% 1.8 mph E2.9 kmh E 3.1 mph5.0 kmh 30.47 in1031.8 mb 0.00 in0.0 mm 0.00 in0.0 mm 0.00 in0.0 mm